sensor_id;sensor_type;location;lat;lon;timestamp;temperature;humidity
23544;DHT22;11950;51.230;4.012;2023-12-20T00:00:09;8.30;99.90
23544;DHT22;11950;51.230;4.012;2023-12-20T00:02:35;8.40;99.90
23544;DHT22;11950;51.230;4.012;2023-12-20T00:05:01;8.40;99.90
23544;DHT22;11950;51.230;4.012;2023-12-20T00:07:28;8.40;99.90
23544;DHT22;11950;51.230;4.012;2023-12-20T00:09:54;8.30;99.90
23544;DHT22;11950;51.230;4.012;2023-12-20T00:12:20;8.30;99.90
23544;DHT22;11950;51.230;4.012;2023-12-20T00:14:46;8.30;99.90
23544;DHT22;11950;51.230;4.012;2023-12-20T00:17:12;8.20;99.90
23544;DHT22;11950;51.230;4.012;2023-12-20T00:19:39;8.20;99.90
23544;DHT22;11950;51.230;4.012;2023-12-20T00:22:05;8.30;99.90
23544;DHT22;11950;51.230;4.012;2023-12-20T00:24:31;8.30;99.90
23544;DHT22;11950;51.230;4.012;2023-12-20T00:26:57;8.30;99.90
23544;DHT22;11950;51.230;4.012;2023-12-20T00:29:24;8.20;99.90
23544;DHT22;11950;51.230;4.012;2023-12-20T00:31:50;8.20;99.90
23544;DHT22;11950;51.230;4.012;2023-12-20T00:34:16;8.20;99.90
23544;DHT22;11950;51.230;4.012;2023-12-20T00:36:42;8.10;99.90
23544;DHT22;11950;51.230;4.012;2023-12-20T00:39:09;8.10;99.90
23544;DHT22;11950;51.230;4.012;2023-12-20T00:41:35;8.10;99.90
23544;DHT22;11950;51.230;4.012;2023-12-20T00:44:01;8.10;99.90
23544;DHT22;11950;51.230;4.012;2023-12-20T00:46:28;8.00;99.90
23544;DHT22;11950;51.230;4.012;2023-12-20T00:48:54;8.00;99.90
23544;DHT22;11950;51.230;4.012;2023-12-20T00:51:20;8.00;99.90
23544;DHT22;11950;51.230;4.012;2023-12-20T00:53:46;8.00;99.90
23544;DHT22;11950;51.230;4.012;2023-12-20T00:56:15;7.90;99.90
23544;DHT22;11950;51.230;4.012;2023-12-20T00:58:41;7.90;99.90
23544;DHT22;11950;51.230;4.012;2023-12-20T01:01:07;7.90;99.90
23544;DHT22;11950;51.230;4.012;2023-12-20T01:03:34;7.90;99.90
23544;DHT22;11950;51.230;4.012;2023-12-20T01:06:00;7.90;99.90
23544;DHT22;11950;51.230;4.012;2023-12-20T01:08:26;7.90;99.90
23544;DHT22;11950;51.230;4.012;2023-12-20T01:10:52;7.90;99.90
23544;DHT22;11950;51.230;4.012;2023-12-20T01:13:18;7.90;99.90
23544;DHT22;11950;51.230;4.012;2023-12-20T01:15:45;7.90;99.90
23544;DHT22;11950;51.230;4.012;2023-12-20T01:18:11;7.90;99.90
23544;DHT22;11950;51.230;4.012;2023-12-20T01:20:37;7.90;99.90
23544;DHT22;11950;51.230;4.012;2023-12-20T01:23:03;7.80;99.90
23544;DHT22;11950;51.230;4.012;2023-12-20T01:25:30;7.90;99.90
23544;DHT22;11950;51.230;4.012;2023-12-20T01:27:56;7.90;99.90
23544;DHT22;11950;51.230;4.012;2023-12-20T01:30:22;7.90;99.90
23544;DHT22;11950;51.230;4.012;2023-12-20T01:32:48;7.90;99.90
23544;DHT22;11950;51.230;4.012;2023-12-20T01:35:14;8.00;99.90
23544;DHT22;11950;51.230;4.012;2023-12-20T01:37:41;7.90;99.90
23544;DHT22;11950;51.230;4.012;2023-12-20T01:40:07;7.90;99.90
23544;DHT22;11950;51.230;4.012;2023-12-20T01:42:34;7.90;99.90
23544;DHT22;11950;51.230;4.012;2023-12-20T01:45:00;7.90;99.90
23544;DHT22;11950;51.230;4.012;2023-12-20T01:47:26;7.90;99.90
23544;DHT22;11950;51.230;4.012;2023-12-20T01:49:53;8.00;99.90
23544;DHT22;11950;51.230;4.012;2023-12-20T01:52:20;8.10;99.90
23544;DHT22;11950;51.230;4.012;2023-12-20T01:54:47;8.10;99.90
23544;DHT22;11950;51.230;4.012;2023-12-20T01:57:14;8.10;99.90
23544;DHT22;11950;51.230;4.012;2023-12-20T01:59:40;8.10;99.90
23544;DHT22;11950;51.230;4.012;2023-12-20T02:02:07;8.20;99.90
23544;DHT22;11950;51.230;4.012;2023-12-20T02:04:34;8.20;99.90
23544;DHT22;11950;51.230;4.012;2023-12-20T02:07:00;8.20;99.90
23544;DHT22;11950;51.230;4.012;2023-12-20T02:09:28;8.30;99.90
23544;DHT22;11950;51.230;4.012;2023-12-20T02:11:55;8.30;99.90
23544;DHT22;11950;51.230;4.012;2023-12-20T02:14:21;8.30;99.90
23544;DHT22;11950;51.230;4.012;2023-12-20T02:16:48;8.30;99.90
23544;DHT22;11950;51.230;4.012;2023-12-20T02:19:15;8.30;99.90
23544;DHT22;11950;51.230;4.012;2023-12-20T02:21:41;8.30;99.90
23544;DHT22;11950;51.230;4.012;2023-12-20T02:24:07;8.30;99.90
23544;DHT22;11950;51.230;4.012;2023-12-20T02:26:34;8.20;99.90
23544;DHT22;11950;51.230;4.012;2023-12-20T02:29:00;8.20;99.90
23544;DHT22;11950;51.230;4.012;2023-12-20T02:31:27;8.20;99.90
23544;DHT22;11950;51.230;4.012;2023-12-20T02:33:53;8.20;99.90
23544;DHT22;11950;51.230;4.012;2023-12-20T02:36:19;8.10;99.90
23544;DHT22;11950;51.230;4.012;2023-12-20T02:38:46;8.20;99.90
23544;DHT22;11950;51.230;4.012;2023-12-20T02:41:12;8.10;99.90
23544;DHT22;11950;51.230;4.012;2023-12-20T02:43:40;8.10;99.90
23544;DHT22;11950;51.230;4.012;2023-12-20T02:46:06;8.00;99.90
23544;DHT22;11950;51.230;4.012;2023-12-20T02:48:32;8.00;99.90
23544;DHT22;11950;51.230;4.012;2023-12-20T02:50:59;8.00;99.90
23544;DHT22;11950;51.230;4.012;2023-12-20T02:53:25;8.00;99.90
23544;DHT22;11950;51.230;4.012;2023-12-20T02:55:51;8.00;99.90
23544;DHT22;11950;51.230;4.012;2023-12-20T02:58:17;7.90;99.90
23544;DHT22;11950;51.230;4.012;2023-12-20T03:00:44;7.90;99.90
23544;DHT22;11950;51.230;4.012;2023-12-20T03:03:10;7.90;99.90
23544;DHT22;11950;51.230;4.012;2023-12-20T03:05:36;7.90;99.90
23544;DHT22;11950;51.230;4.012;2023-12-20T03:08:02;7.80;99.90
23544;DHT22;11950;51.230;4.012;2023-12-20T03:10:29;7.90;99.90
23544;DHT22;11950;51.230;4.012;2023-12-20T03:12:55;7.90;99.90
23544;DHT22;11950;51.230;4.012;2023-12-20T03:15:21;7.90;99.90
23544;DHT22;11950;51.230;4.012;2023-12-20T03:17:47;7.90;99.90
23544;DHT22;11950;51.230;4.012;2023-12-20T03:20:13;7.90;99.90
23544;DHT22;11950;51.230;4.012;2023-12-20T03:22:40;7.90;99.90
23544;DHT22;11950;51.230;4.012;2023-12-20T03:25:06;7.90;99.90
23544;DHT22;11950;51.230;4.012;2023-12-20T03:27:32;7.90;99.90
23544;DHT22;11950;51.230;4.012;2023-12-20T03:29:59;7.90;99.90
23544;DHT22;11950;51.230;4.012;2023-12-20T03:32:25;8.00;99.90
23544;DHT22;11950;51.230;4.012;2023-12-20T03:34:51;8.00;99.90
23544;DHT22;11950;51.230;4.012;2023-12-20T03:37:17;8.00;99.90
23544;DHT22;11950;51.230;4.012;2023-12-20T03:39:43;8.00;99.90
23544;DHT22;11950;51.230;4.012;2023-12-20T03:42:10;7.90;99.90
23544;DHT22;11950;51.230;4.012;2023-12-20T03:44:38;8.00;99.90
23544;DHT22;11950;51.230;4.012;2023-12-20T03:47:05;8.00;99.90
23544;DHT22;11950;51.230;4.012;2023-12-20T03:49:32;8.00;99.90
23544;DHT22;11950;51.230;4.012;2023-12-20T03:51:58;8.00;99.90
23544;DHT22;11950;51.230;4.012;2023-12-20T03:54:24;8.10;99.90
23544;DHT22;11950;51.230;4.012;2023-12-20T03:56:51;8.00;99.90
23544;DHT22;11950;51.230;4.012;2023-12-20T03:59:17;8.00;99.90
23544;DHT22;11950;51.230;4.012;2023-12-20T04:01:44;8.10;99.90
23544;DHT22;11950;51.230;4.012;2023-12-20T04:04:13;8.00;99.90
23544;DHT22;11950;51.230;4.012;2023-12-20T04:06:40;8.00;99.90
23544;DHT22;11950;51.230;4.012;2023-12-20T04:09:06;8.10;99.90
23544;DHT22;11950;51.230;4.012;2023-12-20T04:11:36;8.10;99.90
23544;DHT22;11950;51.230;4.012;2023-12-20T04:14:02;8.10;99.90
23544;DHT22;11950;51.230;4.012;2023-12-20T04:16:28;8.10;99.90
23544;DHT22;11950;51.230;4.012;2023-12-20T04:18:54;8.10;99.90
23544;DHT22;11950;51.230;4.012;2023-12-20T04:21:21;8.00;99.90
23544;DHT22;11950;51.230;4.012;2023-12-20T04:23:47;8.00;99.90
23544;DHT22;11950;51.230;4.012;2023-12-20T04:26:13;8.00;99.90
23544;DHT22;11950;51.230;4.012;2023-12-20T04:28:39;8.00;99.90
23544;DHT22;11950;51.230;4.012;2023-12-20T04:31:05;8.00;99.90
23544;DHT22;11950;51.230;4.012;2023-12-20T04:33:32;7.90;99.90
23544;DHT22;11950;51.230;4.012;2023-12-20T04:35:58;8.00;99.90
23544;DHT22;11950;51.230;4.012;2023-12-20T04:38:26;8.00;99.90
23544;DHT22;11950;51.230;4.012;2023-12-20T04:40:52;8.00;99.90
23544;DHT22;11950;51.230;4.012;2023-12-20T04:43:18;7.90;99.90
23544;DHT22;11950;51.230;4.012;2023-12-20T04:45:45;7.90;99.90
23544;DHT22;11950;51.230;4.012;2023-12-20T04:48:11;7.90;99.90
23544;DHT22;11950;51.230;4.012;2023-12-20T04:50:38;7.90;99.90
23544;DHT22;11950;51.230;4.012;2023-12-20T04:53:04;7.80;99.90
23544;DHT22;11950;51.230;4.012;2023-12-20T04:55:30;7.90;99.90
23544;DHT22;11950;51.230;4.012;2023-12-20T04:57:56;7.90;99.90
23544;DHT22;11950;51.230;4.012;2023-12-20T05:00:23;7.80;99.90
23544;DHT22;11950;51.230;4.012;2023-12-20T05:02:49;7.80;99.90
23544;DHT22;11950;51.230;4.012;2023-12-20T05:05:15;7.80;99.90
23544;DHT22;11950;51.230;4.012;2023-12-20T05:07:44;7.80;99.90
23544;DHT22;11950;51.230;4.012;2023-12-20T05:10:10;7.80;99.90
23544;DHT22;11950;51.230;4.012;2023-12-20T05:12:36;7.80;99.90
23544;DHT22;11950;51.230;4.012;2023-12-20T05:15:03;7.80;99.90
23544;DHT22;11950;51.230;4.012;2023-12-20T05:17:30;7.80;99.90
23544;DHT22;11950;51.230;4.012;2023-12-20T05:19:56;7.80;99.90
23544;DHT22;11950;51.230;4.012;2023-12-20T05:22:22;7.80;99.90
23544;DHT22;11950;51.230;4.012;2023-12-20T05:24:48;7.80;99.90
23544;DHT22;11950;51.230;4.012;2023-12-20T05:27:15;7.80;99.90
23544;DHT22;11950;51.230;4.012;2023-12-20T05:29:41;7.80;99.90
23544;DHT22;11950;51.230;4.012;2023-12-20T05:32:07;7.80;99.90
23544;DHT22;11950;51.230;4.012;2023-12-20T05:34:33;7.80;99.90
23544;DHT22;11950;51.230;4.012;2023-12-20T05:37:00;7.80;99.90
23544;DHT22;11950;51.230;4.012;2023-12-20T05:39:27;7.80;99.90
23544;DHT22;11950;51.230;4.012;2023-12-20T05:41:54;7.90;99.90
23544;DHT22;11950;51.230;4.012;2023-12-20T05:44:20;7.90;99.90
23544;DHT22;11950;51.230;4.012;2023-12-20T05:46:46;7.90;99.90
23544;DHT22;11950;51.230;4.012;2023-12-20T05:49:12;8.00;99.90
23544;DHT22;11950;51.230;4.012;2023-12-20T05:51:39;8.00;99.90
23544;DHT22;11950;51.230;4.012;2023-12-20T05:54:06;8.00;99.90
23544;DHT22;11950;51.230;4.012;2023-12-20T05:56:32;8.00;99.90
23544;DHT22;11950;51.230;4.012;2023-12-20T05:58:58;8.00;99.90
23544;DHT22;11950;51.230;4.012;2023-12-20T06:01:25;8.10;99.90
23544;DHT22;11950;51.230;4.012;2023-12-20T06:03:51;8.10;99.90
23544;DHT22;11950;51.230;4.012;2023-12-20T06:06:17;8.10;99.90
23544;DHT22;11950;51.230;4.012;2023-12-20T06:08:44;8.10;99.90
23544;DHT22;11950;51.230;4.012;2023-12-20T06:11:10;8.10;99.90
23544;DHT22;11950;51.230;4.012;2023-12-20T06:13:36;8.10;99.90
23544;DHT22;11950;51.230;4.012;2023-12-20T06:16:04;8.10;99.90
23544;DHT22;11950;51.230;4.012;2023-12-20T06:18:31;8.10;99.90
23544;DHT22;11950;51.230;4.012;2023-12-20T06:20:57;8.10;99.90
23544;DHT22;11950;51.230;4.012;2023-12-20T06:23:23;8.10;99.90
23544;DHT22;11950;51.230;4.012;2023-12-20T06:25:49;8.10;99.90
23544;DHT22;11950;51.230;4.012;2023-12-20T06:28:16;8.20;99.90
23544;DHT22;11950;51.230;4.012;2023-12-20T06:30:42;8.20;99.90
23544;DHT22;11950;51.230;4.012;2023-12-20T06:33:08;8.20;99.90
23544;DHT22;11950;51.230;4.012;2023-12-20T06:35:35;8.30;99.90
23544;DHT22;11950;51.230;4.012;2023-12-20T06:38:02;8.30;99.90
23544;DHT22;11950;51.230;4.012;2023-12-20T06:40:29;8.30;99.90
23544;DHT22;11950;51.230;4.012;2023-12-20T06:42:55;8.30;99.90
23544;DHT22;11950;51.230;4.012;2023-12-20T06:45:21;8.40;99.90
23544;DHT22;11950;51.230;4.012;2023-12-20T06:47:48;8.40;99.90
23544;DHT22;11950;51.230;4.012;2023-12-20T06:50:14;8.50;99.90
23544;DHT22;11950;51.230;4.012;2023-12-20T06:52:40;8.50;99.90
23544;DHT22;11950;51.230;4.012;2023-12-20T06:55:07;8.50;99.90
23544;DHT22;11950;51.230;4.012;2023-12-20T06:57:33;8.50;99.90
23544;DHT22;11950;51.230;4.012;2023-12-20T07:00:03;8.50;99.90
23544;DHT22;11950;51.230;4.012;2023-12-20T07:02:30;8.40;99.90
23544;DHT22;11950;51.230;4.012;2023-12-20T07:04:57;8.40;99.90
23544;DHT22;11950;51.230;4.012;2023-12-20T07:07:23;8.40;99.90
23544;DHT22;11950;51.230;4.012;2023-12-20T07:09:50;8.40;99.90
23544;DHT22;11950;51.230;4.012;2023-12-20T07:12:16;8.30;99.90
23544;DHT22;11950;51.230;4.012;2023-12-20T07:14:45;8.30;99.90
23544;DHT22;11950;51.230;4.012;2023-12-20T07:17:11;8.30;99.90
23544;DHT22;11950;51.230;4.012;2023-12-20T07:19:39;8.30;99.90
23544;DHT22;11950;51.230;4.012;2023-12-20T07:22:06;8.30;99.90
23544;DHT22;11950;51.230;4.012;2023-12-20T07:24:33;8.40;99.90
23544;DHT22;11950;51.230;4.012;2023-12-20T07:27:00;8.30;99.90
23544;DHT22;11950;51.230;4.012;2023-12-20T07:29:26;8.30;99.90
23544;DHT22;11950;51.230;4.012;2023-12-20T07:31:53;8.30;99.90
23544;DHT22;11950;51.230;4.012;2023-12-20T07:34:20;8.30;99.90
23544;DHT22;11950;51.230;4.012;2023-12-20T07:36:47;8.30;99.90
23544;DHT22;11950;51.230;4.012;2023-12-20T07:39:14;8.40;99.90
23544;DHT22;11950;51.230;4.012;2023-12-20T07:41:40;8.40;99.90
23544;DHT22;11950;51.230;4.012;2023-12-20T07:44:06;8.40;99.90
23544;DHT22;11950;51.230;4.012;2023-12-20T07:46:33;8.40;99.90
23544;DHT22;11950;51.230;4.012;2023-12-20T07:48:59;8.50;99.90
23544;DHT22;11950;51.230;4.012;2023-12-20T07:51:26;8.50;99.90
23544;DHT22;11950;51.230;4.012;2023-12-20T07:53:52;8.60;99.90
23544;DHT22;11950;51.230;4.012;2023-12-20T07:56:19;8.60;99.90
23544;DHT22;11950;51.230;4.012;2023-12-20T07:58:46;8.70;99.90
23544;DHT22;11950;51.230;4.012;2023-12-20T08:01:16;8.70;99.90
23544;DHT22;11950;51.230;4.012;2023-12-20T08:03:43;8.80;99.90
23544;DHT22;11950;51.230;4.012;2023-12-20T08:06:09;8.80;99.90
23544;DHT22;11950;51.230;4.012;2023-12-20T08:08:35;8.80;99.90
23544;DHT22;11950;51.230;4.012;2023-12-20T08:11:01;8.80;99.90
23544;DHT22;11950;51.230;4.012;2023-12-20T08:13:28;8.80;99.90
23544;DHT22;11950;51.230;4.012;2023-12-20T08:15:55;8.80;99.90
23544;DHT22;11950;51.230;4.012;2023-12-20T08:18:22;8.80;99.90
23544;DHT22;11950;51.230;4.012;2023-12-20T08:20:49;8.80;99.90
23544;DHT22;11950;51.230;4.012;2023-12-20T08:23:15;8.80;99.90
23544;DHT22;11950;51.230;4.012;2023-12-20T08:25:41;8.80;99.90
23544;DHT22;11950;51.230;4.012;2023-12-20T08:28:08;8.80;99.90
23544;DHT22;11950;51.230;4.012;2023-12-20T08:30:34;8.70;99.90
23544;DHT22;11950;51.230;4.012;2023-12-20T08:33:00;8.70;99.90
23544;DHT22;11950;51.230;4.012;2023-12-20T08:35:27;8.70;99.90
23544;DHT22;11950;51.230;4.012;2023-12-20T08:37:53;8.70;99.90
23544;DHT22;11950;51.230;4.012;2023-12-20T08:40:19;8.70;99.90
23544;DHT22;11950;51.230;4.012;2023-12-20T08:42:46;8.70;99.90
23544;DHT22;11950;51.230;4.012;2023-12-20T08:45:12;8.70;99.90
23544;DHT22;11950;51.230;4.012;2023-12-20T08:47:38;8.80;99.90
23544;DHT22;11950;51.230;4.012;2023-12-20T08:50:07;8.70;99.90
23544;DHT22;11950;51.230;4.012;2023-12-20T08:52:33;8.70;99.90
23544;DHT22;11950;51.230;4.012;2023-12-20T08:54:59;8.70;99.90
23544;DHT22;11950;51.230;4.012;2023-12-20T08:57:26;8.70;99.90
23544;DHT22;11950;51.230;4.012;2023-12-20T08:59:52;8.80;99.90
23544;DHT22;11950;51.230;4.012;2023-12-20T09:02:18;8.80;99.90
23544;DHT22;11950;51.230;4.012;2023-12-20T09:04:45;8.80;99.90
23544;DHT22;11950;51.230;4.012;2023-12-20T09:07:24;8.90;99.90
23544;DHT22;11950;51.230;4.012;2023-12-20T09:09:51;9.00;99.90
23544;DHT22;11950;51.230;4.012;2023-12-20T09:12:20;9.10;99.90
23544;DHT22;11950;51.230;4.012;2023-12-20T09:14:47;9.10;99.90
23544;DHT22;11950;51.230;4.012;2023-12-20T09:17:15;9.20;99.90
23544;DHT22;11950;51.230;4.012;2023-12-20T09:19:42;9.20;99.90
23544;DHT22;11950;51.230;4.012;2023-12-20T09:22:12;9.30;99.90
23544;DHT22;11950;51.230;4.012;2023-12-20T09:24:39;9.30;99.90
23544;DHT22;11950;51.230;4.012;2023-12-20T09:27:05;9.30;99.90
23544;DHT22;11950;51.230;4.012;2023-12-20T09:29:32;9.30;99.90
23544;DHT22;11950;51.230;4.012;2023-12-20T09:31:58;9.30;99.90
23544;DHT22;11950;51.230;4.012;2023-12-20T09:34:24;9.40;99.90
23544;DHT22;11950;51.230;4.012;2023-12-20T09:36:52;9.40;99.90
23544;DHT22;11950;51.230;4.012;2023-12-20T09:39:19;9.50;99.90
23544;DHT22;11950;51.230;4.012;2023-12-20T09:44:24;9.50;99.90
23544;DHT22;11950;51.230;4.012;2023-12-20T09:46:50;9.60;99.90
23544;DHT22;11950;51.230;4.012;2023-12-20T09:49:17;9.60;99.90
23544;DHT22;11950;51.230;4.012;2023-12-20T09:51:46;9.60;99.90
23544;DHT22;11950;51.230;4.012;2023-12-20T09:54:17;9.60;99.90
23544;DHT22;11950;51.230;4.012;2023-12-20T09:56:44;9.60;99.90
23544;DHT22;11950;51.230;4.012;2023-12-20T09:59:10;9.70;99.90
23544;DHT22;11950;51.230;4.012;2023-12-20T10:01:39;9.70;99.90
23544;DHT22;11950;51.230;4.012;2023-12-20T10:04:06;9.70;99.90
23544;DHT22;11950;51.230;4.012;2023-12-20T10:06:52;9.80;99.90
23544;DHT22;11950;51.230;4.012;2023-12-20T10:09:19;9.80;99.90
23544;DHT22;11950;51.230;4.012;2023-12-20T10:11:45;9.80;99.90
23544;DHT22;11950;51.230;4.012;2023-12-20T10:14:12;9.80;99.90
23544;DHT22;11950;51.230;4.012;2023-12-20T10:16:39;9.90;99.90
23544;DHT22;11950;51.230;4.012;2023-12-20T10:19:05;9.90;99.90
23544;DHT22;11950;51.230;4.012;2023-12-20T10:21:31;9.90;99.90
23544;DHT22;11950;51.230;4.012;2023-12-20T10:23:57;9.90;99.90
23544;DHT22;11950;51.230;4.012;2023-12-20T10:26:26;9.90;99.90
23544;DHT22;11950;51.230;4.012;2023-12-20T10:28:56;9.90;99.90
23544;DHT22;11950;51.230;4.012;2023-12-20T10:31:30;9.90;99.90
23544;DHT22;11950;51.230;4.012;2023-12-20T10:33:57;9.90;99.90
23544;DHT22;11950;51.230;4.012;2023-12-20T10:36:26;9.90;99.90
23544;DHT22;11950;51.230;4.012;2023-12-20T10:38:54;9.90;99.90
23544;DHT22;11950;51.230;4.012;2023-12-20T10:41:28;9.90;99.90
23544;DHT22;11950;51.230;4.012;2023-12-20T10:44:02;9.90;99.90
23544;DHT22;11950;51.230;4.012;2023-12-20T10:46:31;9.90;99.90
23544;DHT22;11950;51.230;4.012;2023-12-20T10:49:05;10.00;99.90
23544;DHT22;11950;51.230;4.012;2023-12-20T10:51:31;10.00;99.90
23544;DHT22;11950;51.230;4.012;2023-12-20T10:53:57;10.00;99.90
23544;DHT22;11950;51.230;4.012;2023-12-20T10:56:24;10.00;99.90
23544;DHT22;11950;51.230;4.012;2023-12-20T10:58:51;10.10;99.90
23544;DHT22;11950;51.230;4.012;2023-12-20T11:01:18;10.00;99.90
23544;DHT22;11950;51.230;4.012;2023-12-20T11:03:49;10.10;99.90
23544;DHT22;11950;51.230;4.012;2023-12-20T11:06:36;10.00;99.90
23544;DHT22;11950;51.230;4.012;2023-12-20T11:09:25;10.00;99.90
23544;DHT22;11950;51.230;4.012;2023-12-20T11:12:15;10.00;99.90
23544;DHT22;11950;51.230;4.012;2023-12-20T11:14:55;10.00;99.90
23544;DHT22;11950;51.230;4.012;2023-12-20T11:17:23;10.00;99.90
23544;DHT22;11950;51.230;4.012;2023-12-20T11:22:20;10.10;99.90
23544;DHT22;11950;51.230;4.012;2023-12-20T11:24:48;10.10;99.90
23544;DHT22;11950;51.230;4.012;2023-12-20T11:27:15;10.10;99.90
23544;DHT22;11950;51.230;4.012;2023-12-20T11:29:41;10.10;99.90
23544;DHT22;11950;51.230;4.012;2023-12-20T11:34:58;10.20;99.90
23544;DHT22;11950;51.230;4.012;2023-12-20T11:37:32;10.20;99.90
23544;DHT22;11950;51.230;4.012;2023-12-20T11:42:33;10.30;99.90
23544;DHT22;11950;51.230;4.012;2023-12-20T11:45:04;10.30;99.90
23544;DHT22;11950;51.230;4.012;2023-12-20T11:47:31;10.30;99.90
23544;DHT22;11950;51.230;4.012;2023-12-20T11:49:57;10.30;99.90
23544;DHT22;11950;51.230;4.012;2023-12-20T11:52:26;10.40;99.90
23544;DHT22;11950;51.230;4.012;2023-12-20T11:54:52;10.40;99.90
23544;DHT22;11950;51.230;4.012;2023-12-20T11:57:19;10.50;99.90
23544;DHT22;11950;51.230;4.012;2023-12-20T11:59:45;10.50;99.90
23544;DHT22;11950;51.230;4.012;2023-12-20T12:02:12;10.50;99.90
23544;DHT22;11950;51.230;4.012;2023-12-20T12:04:40;10.50;99.90
23544;DHT22;11950;51.230;4.012;2023-12-20T12:07:07;10.50;99.90
23544;DHT22;11950;51.230;4.012;2023-12-20T12:09:34;10.60;99.90
23544;DHT22;11950;51.230;4.012;2023-12-20T12:12:00;10.60;99.90
23544;DHT22;11950;51.230;4.012;2023-12-20T12:14:27;10.60;99.90
23544;DHT22;11950;51.230;4.012;2023-12-20T12:16:53;10.60;99.90
23544;DHT22;11950;51.230;4.012;2023-12-20T12:19:24;10.60;99.90
23544;DHT22;11950;51.230;4.012;2023-12-20T12:21:51;10.70;99.90
23544;DHT22;11950;51.230;4.012;2023-12-20T12:24:29;10.70;99.90
23544;DHT22;11950;51.230;4.012;2023-12-20T12:26:57;10.70;99.90
23544;DHT22;11950;51.230;4.012;2023-12-20T12:29:24;10.70;99.90
23544;DHT22;11950;51.230;4.012;2023-12-20T12:31:51;10.70;99.90
23544;DHT22;11950;51.230;4.012;2023-12-20T12:34:17;10.80;99.90
23544;DHT22;11950;51.230;4.012;2023-12-20T12:36:44;10.80;99.90
23544;DHT22;11950;51.230;4.012;2023-12-20T12:39:16;10.80;99.90
23544;DHT22;11950;51.230;4.012;2023-12-20T12:41:43;10.80;99.90
23544;DHT22;11950;51.230;4.012;2023-12-20T12:44:09;10.80;99.90
23544;DHT22;11950;51.230;4.012;2023-12-20T12:46:36;10.80;99.90
23544;DHT22;11950;51.230;4.012;2023-12-20T12:49:02;10.80;99.90
23544;DHT22;11950;51.230;4.012;2023-12-20T12:51:28;10.80;99.90
23544;DHT22;11950;51.230;4.012;2023-12-20T12:53:54;10.80;99.90
23544;DHT22;11950;51.230;4.012;2023-12-20T12:56:21;10.90;99.90
23544;DHT22;11950;51.230;4.012;2023-12-20T12:58:48;10.90;99.90
23544;DHT22;11950;51.230;4.012;2023-12-20T13:01:14;10.90;99.90
23544;DHT22;11950;51.230;4.012;2023-12-20T13:03:40;10.90;99.90
23544;DHT22;11950;51.230;4.012;2023-12-20T13:06:07;10.90;99.90
23544;DHT22;11950;51.230;4.012;2023-12-20T13:08:35;11.00;99.90
23544;DHT22;11950;51.230;4.012;2023-12-20T13:11:01;11.00;99.90
23544;DHT22;11950;51.230;4.012;2023-12-20T13:13:30;11.10;99.90
23544;DHT22;11950;51.230;4.012;2023-12-20T13:15:57;11.10;99.90
23544;DHT22;11950;51.230;4.012;2023-12-20T13:18:24;11.10;99.90
23544;DHT22;11950;51.230;4.012;2023-12-20T13:20:50;11.20;99.90
23544;DHT22;11950;51.230;4.012;2023-12-20T13:23:16;11.10;99.90
23544;DHT22;11950;51.230;4.012;2023-12-20T13:25:44;11.20;99.90
23544;DHT22;11950;51.230;4.012;2023-12-20T13:28:13;11.20;99.90
23544;DHT22;11950;51.230;4.012;2023-12-20T13:30:40;11.20;99.90
23544;DHT22;11950;51.230;4.012;2023-12-20T13:33:06;11.20;99.90
23544;DHT22;11950;51.230;4.012;2023-12-20T13:35:33;11.20;99.90
23544;DHT22;11950;51.230;4.012;2023-12-20T13:38:00;11.20;99.90
23544;DHT22;11950;51.230;4.012;2023-12-20T13:40:27;11.20;99.90
23544;DHT22;11950;51.230;4.012;2023-12-20T13:42:54;11.20;99.90
23544;DHT22;11950;51.230;4.012;2023-12-20T13:45:21;11.20;99.90
23544;DHT22;11950;51.230;4.012;2023-12-20T13:47:47;11.20;99.90
23544;DHT22;11950;51.230;4.012;2023-12-20T13:50:13;11.20;99.90
23544;DHT22;11950;51.230;4.012;2023-12-20T13:52:39;11.20;99.90
23544;DHT22;11950;51.230;4.012;2023-12-20T13:55:06;11.20;99.90
23544;DHT22;11950;51.230;4.012;2023-12-20T13:57:34;11.20;99.90
23544;DHT22;11950;51.230;4.012;2023-12-20T14:00:04;11.20;99.90
23544;DHT22;11950;51.230;4.012;2023-12-20T14:02:33;11.20;99.90
23544;DHT22;11950;51.230;4.012;2023-12-20T14:04:59;11.30;99.90
23544;DHT22;11950;51.230;4.012;2023-12-20T14:07:26;11.30;99.90
23544;DHT22;11950;51.230;4.012;2023-12-20T14:09:55;11.30;99.90
23544;DHT22;11950;51.230;4.012;2023-12-20T14:12:21;11.40;99.90
23544;DHT22;11950;51.230;4.012;2023-12-20T14:14:47;11.40;99.90
23544;DHT22;11950;51.230;4.012;2023-12-20T14:17:14;11.40;99.90
23544;DHT22;11950;51.230;4.012;2023-12-20T14:19:40;11.40;99.90
23544;DHT22;11950;51.230;4.012;2023-12-20T14:22:06;11.40;99.90
23544;DHT22;11950;51.230;4.012;2023-12-20T14:24:33;11.50;99.90
23544;DHT22;11950;51.230;4.012;2023-12-20T14:27:00;11.50;99.90
23544;DHT22;11950;51.230;4.012;2023-12-20T14:29:27;11.50;99.90
23544;DHT22;11950;51.230;4.012;2023-12-20T14:31:53;11.50;99.90
23544;DHT22;11950;51.230;4.012;2023-12-20T14:34:19;11.50;99.90
23544;DHT22;11950;51.230;4.012;2023-12-20T14:36:45;11.50;99.90
23544;DHT22;11950;51.230;4.012;2023-12-20T14:39:12;11.50;99.90
23544;DHT22;11950;51.230;4.012;2023-12-20T14:41:39;11.50;99.90
23544;DHT22;11950;51.230;4.012;2023-12-20T14:44:08;11.50;99.90
23544;DHT22;11950;51.230;4.012;2023-12-20T14:46:34;11.50;99.90
23544;DHT22;11950;51.230;4.012;2023-12-20T14:49:01;11.50;99.90
23544;DHT22;11950;51.230;4.012;2023-12-20T14:51:28;11.50;99.90
23544;DHT22;11950;51.230;4.012;2023-12-20T14:53:55;11.50;99.90
23544;DHT22;11950;51.230;4.012;2023-12-20T14:56:23;11.50;99.90
23544;DHT22;11950;51.230;4.012;2023-12-20T14:58:49;11.50;99.90
23544;DHT22;11950;51.230;4.012;2023-12-20T15:01:16;11.50;99.90
23544;DHT22;11950;51.230;4.012;2023-12-20T15:03:43;11.50;99.90
23544;DHT22;11950;51.230;4.012;2023-12-20T15:06:09;11.50;99.90
23544;DHT22;11950;51.230;4.012;2023-12-20T15:08:37;11.50;99.90
23544;DHT22;11950;51.230;4.012;2023-12-20T15:11:04;11.50;99.90
23544;DHT22;11950;51.230;4.012;2023-12-20T15:13:31;11.50;99.90
23544;DHT22;11950;51.230;4.012;2023-12-20T15:15:57;11.50;99.90
23544;DHT22;11950;51.230;4.012;2023-12-20T15:18:24;11.50;99.90
23544;DHT22;11950;51.230;4.012;2023-12-20T15:20:50;11.50;99.90
23544;DHT22;11950;51.230;4.012;2023-12-20T15:23:17;11.50;99.90
23544;DHT22;11950;51.230;4.012;2023-12-20T15:25:43;11.60;99.90
23544;DHT22;11950;51.230;4.012;2023-12-20T15:28:09;11.60;99.90
23544;DHT22;11950;51.230;4.012;2023-12-20T15:30:36;11.50;99.90
23544;DHT22;11950;51.230;4.012;2023-12-20T15:33:03;11.50;99.90
23544;DHT22;11950;51.230;4.012;2023-12-20T15:35:30;11.50;99.90
23544;DHT22;11950;51.230;4.012;2023-12-20T15:37:57;11.50;99.90
23544;DHT22;11950;51.230;4.012;2023-12-20T15:40:24;11.50;99.90
23544;DHT22;11950;51.230;4.012;2023-12-20T15:42:51;11.50;99.90
23544;DHT22;11950;51.230;4.012;2023-12-20T15:45:17;11.50;99.90
23544;DHT22;11950;51.230;4.012;2023-12-20T15:47:44;11.50;99.90
23544;DHT22;11950;51.230;4.012;2023-12-20T15:50:11;11.50;99.90